Time;durP1;ratioP1;P1;durP2;ratioP2;P2;SDS_P1;SDS_P2;PMS_P1;PMS_P2;Temp;Humidity;BMP_temperature;BMP_pressure;BME280_temperature;BME280_humidity;BME280_pressure;Samples;Min_cycle;Max_cycle;Signal;HPM_P1;HPM_P2
2022/12/19 00:00:16;;;;;;;4.85;3.38;;;;;;;3.88;100.00;101306.41;10579539;28;20073;-69
2022/12/19 00:05:17;;;;;;;5.15;3.45;;;;;;;3.62;100.00;101239.78;10585418;27;20043;-69
2022/12/19 00:10:17;;;;;;;7.60;3.50;;;;;;;4.05;100.00;101287.75;10582343;27;20035;-70
2022/12/19 00:15:18;;;;;;;9.18;3.80;;;;;;;3.74;100.00;101218.00;10580309;27;20035;-69
2022/12/19 00:20:19;;;;;;;6.60;4.00;;;;;;;4.23;100.00;101290.09;10582745;27;20050;-69
2022/12/19 00:25:22;;;;;;;5.65;3.50;;;;;;;4.18;100.00;101286.91;10578694;28;20039;-69
2022/12/19 00:30:23;;;;;;;4.82;3.95;;;;;;;4.13;100.00;101268.84;10582514;27;20047;-69
2022/12/19 00:35:24;;;;;;;6.28;4.25;;;;;;;4.24;100.00;101311.00;10578614;28;20036;-69
2022/12/19 00:40:25;;;;;;;7.38;3.78;;;;;;;4.13;100.00;101297.75;10578742;27;20039;-69
2022/12/19 00:45:26;;;;;;;4.85;3.90;;;;;;;4.31;100.00;101311.47;10581890;27;20043;-70
2022/12/19 00:50:27;;;;;;;5.78;4.35;;;;;;;4.37;100.00;101307.53;10580295;27;20035;-69
2022/12/19 00:55:28;;;;;;;7.10;4.65;;;;;;;3.83;100.00;101219.16;10594774;27;20039;-69
2022/12/19 01:00:28;;;;;;;6.75;4.65;;;;;;;4.33;100.00;101320.06;10625054;27;20035;-69
2022/12/19 01:05:29;;;;;;;5.45;4.05;;;;;;;4.31;100.00;101298.31;10624157;27;20406;-69
2022/12/19 01:10:30;;;;;;;5.03;3.90;;;;;;;4.27;100.00;101286.28;10620657;27;20502;-69
2022/12/19 01:15:31;;;;;;;8.93;5.60;;;;;;;4.48;100.00;101316.38;10584708;27;20040;-70
2022/12/19 01:20:31;;;;;;;7.43;4.55;;;;;;;4.50;100.00;101311.88;10606003;27;20046;-69
2022/12/19 01:25:34;;;;;;;6.43;4.07;;;;;;;3.93;100.00;101216.75;10624400;27;20049;-69
2022/12/19 01:30:35;;;;;;;6.88;4.28;;;;;;;4.65;100.00;101333.66;10623436;27;20039;-69
2022/12/19 01:35:36;;;;;;;6.90;3.70;;;;;;;4.49;100.00;101312.00;10623729;27;20494;-69
2022/12/19 01:40:37;;;;;;;5.80;4.53;;;;;;;4.32;100.00;101290.28;10624388;27;20103;-69
2022/12/19 01:45:38;;;;;;;5.60;4.18;;;;;;;4.67;100.00;101344.94;10622902;27;20039;-69
2022/12/19 01:50:53;;;;;;;8.50;4.18;;;;;;;4.67;100.00;101336.22;10606595;27;20120;-68
2022/12/19 01:55:54;;;;;;;9.05;4.57;;;;;;;4.65;100.00;101351.25;10579647;28;20046;-69
2022/12/19 02:00:55;;;;;;;5.90;4.28;;;;;;;4.51;100.00;101323.22;10580407;28;20075;-69
2022/12/19 02:05:58;;;;;;;7.13;5.18;;;;;;;4.66;100.00;101347.66;10561680;28;20088;-69
2022/12/19 02:10:59;;;;;;;17.33;6.05;;;;;;;4.65;100.00;101344.19;10579106;28;20040;-69
2022/12/19 02:16:24;;;;;;;17.30;11.73;;;;;;;4.73;100.00;101352.41;10579873;28;20118;-69
2022/12/19 02:21:31;;;;;;;14.70;8.82;;;;;;;4.85;100.00;101381.47;10578449;28;20044;-69
2022/12/19 02:26:56;;;;;;;12.93;6.90;;;;;;;4.76;100.00;101354.84;10579128;28;20495;-69
2022/12/19 02:32:09;;;;;;;11.50;7.28;;;;;;;5.05;100.00;101394.09;10579242;28;20035;-68
2022/12/19 02:37:17;;;;;;;11.70;6.90;;;;;;;5.06;100.00;101380.00;10579248;28;20073;-69
2022/12/19 02:42:30;;;;;;;7.10;4.57;;;;;;;5.36;100.00;101398.06;10579208;28;20093;-68
2022/12/19 02:47:32;;;;;;;3.72;2.03;;;;;;;5.54;100.00;101395.09;10579697;28;20063;-68
2022/12/19 02:52:33;;;;;;;3.65;2.15;;;;;;;5.60;100.00;101410.44;10584453;28;20043;-69
2022/12/19 02:58:32;;;;;;;6.78;2.03;;;;;;;5.61;100.00;101406.84;10617105;28;20479;-69
2022/12/19 03:04:00;;;;;;;3.50;2.50;;;;;;;5.49;100.00;101416.47;10553813;28;20057;-68
2022/12/19 03:09:11;;;;;;;5.55;2.97;;;;;;;5.30;100.00;101410.84;10622116;28;20047;-68
2022/12/19 03:14:18;;;;;;;4.05;2.55;;;;;;;5.30;100.00;101422.22;10620545;28;20045;-68
2022/12/19 03:19:19;;;;;;;4.15;2.70;;;;;;;5.42;100.00;101449.50;10619626;28;20103;-69
2022/12/19 03:24:20;;;;;;;3.92;2.47;;;;;;;4.80;100.00;101350.19;10619286;28;20486;-68
2022/12/19 03:29:29;;;;;;;4.47;2.88;;;;;;;5.18;100.00;101442.34;10609086;28;20414;-68
2022/12/19 03:34:42;;;;;;;8.23;3.25;;;;;;;4.37;100.00;101318.06;10606380;27;20067;-69
2022/12/19 03:39:48;;;;;;;5.67;3.83;;;;;;;5.15;100.00;101468.06;10586139;28;20039;-69
2022/12/19 03:44:52;;;;;;;5.63;4.18;;;;;;;5.12;100.00;101482.28;10582758;28;20491;-69
2022/12/19 03:49:53;;;;;;;6.30;4.10;;;;;;;4.95;100.00;101469.41;10582739;28;20052;-69
2022/12/19 03:55:00;;;;;;;9.65;5.95;;;;;;;4.88;100.00;101487.41;10567314;28;20055;-68
2022/12/19 04:00:06;;;;;;;10.73;7.43;;;;;;;4.68;100.00;101477.38;10585352;28;20074;-68
2022/12/19 04:05:14;;;;;;;13.82;9.88;;;;;;;4.65;100.00;101494.22;10578265;27;20055;-66
2022/12/19 04:10:19;;;;;;;25.05;17.40;;;;;;;3.96;100.00;101430.31;10602168;27;20046;-66
2022/12/19 04:15:31;;;;;;;25.90;18.60;;;;;;;3.73;100.00;101433.56;10606928;27;20049;-65
2022/12/19 04:20:37;;;;;;;29.00;20.15;;;;;;;3.18;100.00;101365.16;10606995;27;20066;-67
2022/12/19 04:25:44;;;;;;;31.17;23.00;;;;;;;3.79;100.00;101504.16;10626606;27;20062;-67
2022/12/19 04:30:47;;;;;;;31.67;21.85;;;;;;;3.78;100.00;101531.38;10625681;27;20393;-69
2022/12/19 04:35:48;;;;;;;31.80;20.48;;;;;;;3.57;100.00;101496.75;10627032;27;20045;-68
2022/12/19 04:40:48;;;;;;;33.60;22.33;;;;;;;3.71;100.00;101533.53;10626692;27;20402;-69
2022/12/19 04:45:49;;;;;;;30.95;20.77;;;;;;;3.58;100.00;101528.19;10624126;27;20436;-69
2022/12/19 04:50:50;;;;;;;28.85;19.73;;;;;;;3.72;100.00;101568.56;10624881;27;20031;-69
2022/12/19 04:56:00;;;;;;;30.25;20.58;;;;;;;3.72;100.00;101590.41;10600367;27;20039;-69
2022/12/19 05:01:06;;;;;;;28.40;19.92;;;;;;;3.49;100.00;101544.50;10583450;28;20039;-70
2022/12/19 05:06:10;;;;;;;29.13;18.73;;;;;;;3.50;100.00;101561.09;10582792;28;20039;-69
2022/12/19 05:11:13;;;;;;;28.20;18.42;;;;;;;3.52;100.00;101581.09;10582290;28;20043;-69
2022/12/19 05:16:14;;;;;;;23.88;17.10;;;;;;;3.55;100.00;101601.09;10581707;28;20108;-70
2022/12/19 05:21:15;;;;;;;25.83;16.52;;;;;;;3.55;100.00;101622.09;10581724;28;20039;-69
2022/12/19 05:26:16;;;;;;;25.08;15.90;;;;;;;3.56;100.00;101626.41;10581645;28;20137;-69
2022/12/19 05:31:19;;;;;;;25.80;16.05;;;;;;;3.42;100.00;101590.47;10562854;28;20522;-70
2022/12/19 05:36:21;;;;;;;19.13;13.57;;;;;;;3.59;100.00;101606.09;10581789;28;20384;-69
2022/12/19 05:41:22;;;;;;;18.42;12.73;;;;;;;3.69;100.00;101619.50;10581193;28;20040;-68
2022/12/19 05:46:23;;;;;;;19.38;12.23;;;;;;;3.28;100.00;101554.50;10580970;28;20052;-68
2022/12/19 05:51:24;;;;;;;18.67;11.40;;;;;;;3.72;100.00;101645.59;10580859;28;20040;-69
2022/12/19 05:56:25;;;;;;;16.02;9.48;;;;;;;3.70;100.00;101636.97;10580910;28;20035;-69
2022/12/19 06:01:26;;;;;;;13.23;8.63;;;;;;;3.56;100.00;101657.94;10580462;28;20079;-69
2022/12/19 06:06:27;;;;;;;14.25;9.40;;;;;;;3.55;100.00;101664.16;10579772;28;20451;-69
2022/12/19 06:11:28;;;;;;;16.88;9.93;;;;;;;3.57;100.00;101667.53;10580241;28;20126;-69
2022/12/19 06:16:29;;;;;;;14.73;9.40;;;;;;;3.48;100.00;101668.91;10580233;28;20039;-70
2022/12/19 06:21:29;;;;;;;17.88;12.50;;;;;;;2.96;100.00;101590.53;10580842;28;20047;-69
2022/12/19 06:26:30;;;;;;;20.50;12.20;;;;;;;3.36;100.00;101672.25;10579309;28;20545;-70
2022/12/19 06:31:31;;;;;;;19.40;11.82;;;;;;;3.42;100.00;101713.94;10579493;28;20039;-69
2022/12/19 06:36:32;;;;;;;20.63;13.32;;;;;;;3.37;100.00;101716.81;10578982;28;20403;-71
2022/12/19 06:46:52;;;;;;;15.90;10.30;;;;;;;2.75;100.00;101647.69;10579678;28;20540;-69
2022/12/19 06:51:53;;;;;;;18.38;10.30;;;;;;;2.72;100.00;101651.38;10579750;28;20138;-69
2022/12/19 06:56:54;;;;;;;16.52;9.85;;;;;;;2.51;100.00;101632.41;10579191;28;20463;-69
2022/12/19 07:02:13;;;;;;;17.88;10.05;;;;;;;3.18;100.00;101755.56;10578611;28;20055;-69
2022/12/19 07:07:14;;;;;;;16.20;10.57;;;;;;;3.23;100.00;101752.66;10582744;28;20061;-69
2022/12/19 07:12:15;;;;;;;15.25;9.18;;;;;;;3.25;100.00;101749.03;10587094;28;20060;-69
2022/12/19 07:17:17;;;;;;;16.50;9.65;;;;;;;3.01;99.51;101721.53;10587023;28;20035;-69
2022/12/19 07:22:17;;;;;;;20.15;10.35;;;;;;;3.14;99.62;101740.91;10586256;28;20100;-69
2022/12/19 07:27:18;;;;;;;16.20;8.60;;;;;;;3.15;98.31;101742.63;10586367;28;20176;-69
2022/12/19 07:32:19;;;;;;;15.60;9.68;;;;;;;3.21;97.69;101742.28;10586538;28;20122;-70
2022/12/19 07:37:20;;;;;;;16.80;10.10;;;;;;;2.93;97.35;101672.06;10586493;28;20407;-70
2022/12/19 07:42:21;;;;;;;16.05;11.13;;;;;;;3.25;97.23;101730.66;10586039;28;20040;-69
2022/12/19 07:47:22;;;;;;;19.35;11.63;;;;;;;3.33;97.07;101741.56;10585792;28;20233;-69
2022/12/19 07:52:22;;;;;;;20.33;12.27;;;;;;;3.31;96.73;101753.09;10585644;28;20046;-69
2022/12/19 07:57:23;;;;;;;22.50;13.25;;;;;;;3.35;97.04;101754.59;10586086;28;20390;-69
2022/12/19 08:02:24;;;;;;;21.05;13.48;;;;;;;3.17;97.16;101699.59;10584628;28;20047;-69
2022/12/19 08:07:25;;;;;;;19.55;13.05;;;;;;;3.33;96.63;101724.97;10584642;28;20035;-68
2022/12/19 08:12:25;;;;;;;21.83;12.70;;;;;;;3.28;96.94;101732.25;10584640;28;20039;-68
2022/12/19 08:17:26;;;;;;;22.13;12.90;;;;;;;2.99;96.53;101705.84;10585542;28;20043;-68
2022/12/19 08:22:29;;;;;;;30.98;19.85;;;;;;;3.02;97.08;101713.59;10584395;28;20561;-68
2022/12/19 08:27:30;;;;;;;24.95;16.63;;;;;;;2.99;97.55;101734.72;10566116;28;20088;-68
2022/12/19 08:32:30;;;;;;;25.35;17.27;;;;;;;2.03;97.66;101584.34;10584614;28;20092;-68
2022/12/19 08:37:31;;;;;;;22.25;15.75;;;;;;;2.68;97.50;101690.97;10584169;28;20073;-69
2022/12/19 08:42:32;;;;;;;26.25;16.05;;;;;;;2.88;97.96;101697.75;10583710;28;20184;-68
2022/12/19 08:47:33;;;;;;;26.98;18.40;;;;;;;2.94;98.06;101715.78;10583840;28;20048;-67
2022/12/19 08:52:34;;;;;;;26.88;17.02;;;;;;;2.78;98.06;101709.66;10582654;28;20044;-68
2022/12/19 08:57:34;;;;;;;27.98;17.05;;;;;;;2.66;98.37;101726.91;10583218;28;20152;-70
2022/12/19 09:02:35;;;;;;;32.60;20.75;;;;;;;2.72;98.96;101730.09;10582882;28;20097;-68
2022/12/19 09:07:36;;;;;;;35.60;21.35;;;;;;;2.66;99.41;101730.41;10582111;28;20032;-69
2022/12/19 09:12:37;;;;;;;25.95;17.02;;;;;;;2.73;99.31;101731.78;10582476;28;20035;-68
2022/12/19 09:17:37;;;;;;;25.60;16.50;;;;;;;2.51;99.30;101732.09;10582362;28;20039;-69
2022/12/19 09:22:38;;;;;;;41.83;28.00;;;;;;;2.52;99.31;101732.94;10581807;28;20053;-68
2022/12/19 09:27:39;;;;;;;40.85;26.52;;;;;;;2.48;100.00;101713.91;10582382;28;20578;-68
2022/12/19 09:32:40;;;;;;;46.67;26.05;;;;;;;2.46;99.79;101715.75;10581094;28;20118;-68
2022/12/19 09:37:41;;;;;;;36.22;22.38;;;;;;;2.23;99.33;101703.00;10581527;28;20371;-68
2022/12/19 09:43:10;;;;;;;61.25;33.85;;;;;;;2.36;100.00;101717.13;10580867;28;20450;-68
2022/12/19 09:48:14;;;;;;;28.70;18.00;;;;;;;2.55;99.78;101730.13;10581286;28;20130;-68
2022/12/19 09:53:22;;;;;;;;;;;;;;;2.69;99.48;101730.25;10580786;28;20043;-68
2022/12/19 09:58:42;;;;;;;40.92;24.63;;;;;;;2.50;98.74;101721.66;10581258;28;20036;-68
2022/12/19 10:03:49;;;;;;;42.17;24.05;;;;;;;2.42;99.40;101724.72;10580240;28;20047;-68
2022/12/19 10:08:51;;;;;;;24.33;16.20;;;;;;;1.93;99.14;101639.94;10579864;28;20571;-68
2022/12/19 10:14:08;;;;;;;29.27;17.42;;;;;;;2.31;99.25;101713.09;10580270;28;20041;-69
2022/12/19 10:19:18;;;;;;;30.67;16.45;;;;;;;2.22;99.21;101706.56;10579460;28;20075;-69
2022/12/19 10:24:49;;;;;;;24.02;14.70;;;;;;;2.26;99.69;101735.13;10561885;28;20127;-69
2022/12/19 10:30:00;;;;;;;25.85;14.82;;;;;;;2.23;100.00;101716.09;10579908;28;20124;-69
2022/12/19 10:35:01;;;;;;;23.48;13.88;;;;;;;2.05;100.00;101694.31;10579607;28;20039;-69
2022/12/19 10:40:14;;;;;;;22.65;14.48;;;;;;;2.11;100.00;101711.50;10579704;28;20044;-69
2022/12/19 10:45:18;;;;;;;22.02;14.05;;;;;;;2.14;100.00;101727.06;10589054;28;20039;-69
2022/12/19 10:50:21;;;;;;;24.83;16.00;;;;;;;1.98;100.00;101709.53;10587611;28;20063;-69
2022/12/19 10:55:43;;;;;;;25.83;15.10;;;;;;;2.24;100.00;101746.63;10588299;28;20035;-69
2022/12/19 11:01:11;;;;;;;24.80;13.90;;;;;;;2.23;100.00;101748.41;10587899;28;20048;-70
2022/12/19 11:06:33;;;;;;;26.23;15.90;;;;;;;2.15;100.00;101753.19;10587691;28;20036;-70
2022/12/19 11:11:34;;;;;;;27.33;16.42;;;;;;;2.05;100.00;101755.44;10587429;28;20445;-70
2022/12/19 11:16:37;;;;;;;29.83;16.98;;;;;;;1.97;100.00;101741.03;10587135;28;20039;-70
2022/12/19 11:21:38;;;;;;;27.13;16.92;;;;;;;2.06;100.00;101769.41;10586617;28;20043;-70
2022/12/19 11:26:39;;;;;;;28.20;17.85;;;;;;;2.05;100.00;101775.56;10568524;28;20035;-69
2022/12/19 11:31:40;;;;;;;28.20;17.58;;;;;;;2.07;100.00;101781.59;10585826;28;20036;-69
2022/12/19 11:36:48;;;;;;;29.70;17.67;;;;;;;2.11;100.00;101787.53;10586921;28;20100;-69
2022/12/19 11:42:09;;;;;;;34.22;19.50;;;;;;;2.07;100.00;101799.09;10586198;28;20093;-69
2022/12/19 11:47:36;;;;;;;31.90;20.30;;;;;;;1.83;100.00;101797.63;10585850;28;20108;-69
2022/12/19 11:52:44;;;;;;;41.33;24.40;;;;;;;1.69;100.00;101800.06;10584701;28;20043;-69
2022/12/19 11:57:46;;;;;;;36.80;22.15;;;;;;;1.62;100.00;101796.06;10585676;28;20085;-69
2022/12/19 12:03:24;;;;;;;39.47;22.88;;;;;;;1.73;100.00;101806.84;10585566;28;20124;-70
2022/12/19 12:08:40;;;;;;;35.63;21.67;;;;;;;1.79;100.00;101816.19;10585244;28;20038;-68
2022/12/19 12:14:10;;;;;;;36.30;21.38;;;;;;;1.80;100.00;101808.25;10584462;28;20511;-68
2022/12/19 12:19:11;;;;;;;44.60;25.20;;;;;;;1.90;100.00;101811.25;10560045;28;20044;-69
2022/12/19 12:24:33;;;;;;;33.00;21.00;;;;;;;1.05;100.00;101680.16;10573133;27;20050;-69
2022/12/19 12:30:15;;;;;;;36.33;22.85;;;;;;;1.86;100.00;101825.47;10598471;27;20039;-70
2022/12/19 12:35:35;;;;;;;43.65;24.95;;;;;;;1.78;100.00;101825.81;10577130;27;20059;-71
2022/12/19 12:40:57;;;;;;;32.45;19.60;;;;;;;1.52;100.00;101839.31;10609195;27;20054;-71
2022/12/19 12:46:01;;;;;;;26.20;17.88;;;;;;;1.17;100.00;101825.25;10596331;27;20142;-71
2022/12/19 12:51:04;;;;;;;27.33;17.10;;;;;;;1.09;100.00;101833.47;10575978;28;20042;-70
2022/12/19 12:56:07;;;;;;;26.73;16.55;;;;;;;1.13;100.00;101845.50;10593197;27;20296;-70
2022/12/19 13:01:11;;;;;;;28.13;17.00;;;;;;;1.05;100.00;101860.72;10624674;27;20043;-70
2022/12/19 13:06:26;;;;;;;28.83;18.50;;;;;;;0.71;100.00;101794.19;10612506;27;20449;-70
2022/12/19 13:16:49;;;;;;;30.95;17.95;;;;;;;0.86;100.00;101890.31;10586213;27;20036;-70
2022/12/19 13:22:13;;;;;;;28.83;18.48;;;;;;;0.79;100.00;101880.19;10576654;27;20063;-70
2022/12/19 13:27:20;;;;;;;37.35;21.50;;;;;;;-0.16;100.00;101738.75;10586573;27;20042;-71
2022/12/19 13:32:22;;;;;;;31.23;19.63;;;;;;;0.65;100.00;101891.25;10596533;27;20536;-69
2022/12/19 13:37:27;;;;;;;30.83;18.95;;;;;;;0.71;100.00;101906.66;10603569;27;20409;-69
2022/12/19 13:47:56;;;;;;;27.02;17.85;;;;;;;0.22;100.00;101841.63;10594185;27;20128;-69
2022/12/19 13:52:57;;;;;;;27.55;18.25;;;;;;;0.52;100.00;101897.94;10611569;27;20130;-69
2022/12/19 13:58:03;;;;;;;29.65;18.77;;;;;;;0.55;100.00;101919.56;10572588;27;20414;-69
2022/12/19 14:03:14;;;;;;;31.83;18.77;;;;;;;0.68;100.00;101925.13;10595735;27;20081;-68
2022/12/19 14:08:20;;;;;;;31.05;17.27;;;;;;;0.20;100.00;101855.69;10586063;27;20035;-69
2022/12/19 14:18:48;;;;;;;28.67;18.13;;;;;;;0.57;100.00;101946.50;10584608;27;20042;-69
2022/12/19 14:23:49;;;;;;;30.13;19.33;;;;;;;0.62;100.00;101959.38;10598182;27;20043;-69
2022/12/19 14:28:53;;;;;;;30.73;19.20;;;;;;;0.60;100.00;101959.44;10583834;27;20053;-70
2022/12/19 14:33:55;;;;;;;31.92;18.52;;;;;;;0.56;100.00;101965.69;10596736;27;20039;-68
2022/12/19 14:38:57;;;;;;;43.00;25.67;;;;;;;0.47;100.00;101960.84;10593420;27;20113;-69
2022/12/19 14:43:58;;;;;;;34.38;20.30;;;;;;;0.51;100.00;101977.25;10574578;28;20075;-69
2022/12/19 14:49:21;;;;;;;31.48;18.67;;;;;;;0.41;100.00;101982.03;10613317;28;20078;-69
2022/12/19 14:54:23;;;;;;;41.60;22.83;;;;;;;0.24;100.00;101969.66;10579930;28;20048;-69
2022/12/19 14:59:33;;;;;;;33.35;21.27;;;;;;;0.32;100.00;101985.00;10579675;28;20104;-69
2022/12/19 15:04:39;;;;;;;34.15;19.85;;;;;;;-0.24;100.00;101906.22;10602698;28;20118;-69
2022/12/19 15:09:49;;;;;;;34.30;20.67;;;;;;;0.28;100.00;101999.13;10621606;28;20043;-69
2022/12/19 15:15:02;;;;;;;28.05;18.02;;;;;;;0.17;100.00;101996.94;10581889;28;20434;-69
2022/12/19 15:20:03;;;;;;;29.67;18.02;;;;;;;-0.01;100.00;102008.94;10565886;28;20074;-69
2022/12/19 15:25:04;;;;;;;36.58;17.98;;;;;;;-0.62;100.00;101922.50;10574599;28;20047;-70
2022/12/19 15:30:16;;;;;;;38.70;20.73;;;;;;;-0.18;100.00;102025.28;10569159;27;20407;-70
2022/12/19 15:35:17;;;;;;;39.55;20.92;;;;;;;-0.06;100.00;102047.44;10592651;27;20035;-69
2022/12/19 15:40:18;;;;;;;43.75;20.67;;;;;;;-0.23;100.00;102014.16;10612491;27;20042;-69
2022/12/19 15:45:19;;;;;;;43.15;21.42;;;;;;;0.01;100.00;102037.66;10598890;27;20049;-69
2022/12/19 15:50:23;;;;;;;44.38;25.88;;;;;;;0.14;100.00;102055.38;10592827;27;20083;-69
2022/12/19 15:55:27;;;;;;;29.42;16.70;;;;;;;0.19;100.00;102068.28;10598525;27;20051;-71
2022/12/19 16:00:32;;;;;;;32.67;17.88;;;;;;;-0.42;100.00;101985.25;10594045;27;20051;-70
2022/12/19 16:05:33;;;;;;;28.77;17.40;;;;;;;0.13;100.00;102086.81;10587680;27;20410;-71
2022/12/19 16:10:34;;;;;;;25.70;15.85;;;;;;;-0.68;100.00;101965.34;10594846;27;20043;-70
2022/12/19 16:15:38;;;;;;;31.50;17.52;;;;;;;0.06;100.00;102101.88;10613256;27;20135;-70
2022/12/19 16:20:40;;;;;;;41.92;20.63;;;;;;;0.02;100.00;102097.66;10555614;28;20043;-71
2022/12/19 16:25:46;;;;;;;39.05;20.17;;;;;;;-0.15;100.00;102080.03;10551387;28;20066;-71
2022/12/19 16:30:49;;;;;;;43.47;21.90;;;;;;;-0.04;100.00;102109.19;10549452;28;20027;-71
2022/12/19 16:35:50;;;;;;;31.45;18.48;;;;;;;-0.12;100.00;102092.97;10558034;27;20450;-71
2022/12/19 16:40:51;;;;;;;37.85;20.83;;;;;;;-0.17;100.00;102100.13;10556128;28;20070;-71
2022/12/19 16:45:52;;;;;;;44.28;21.48;;;;;;;-0.14;100.00;102100.00;10552528;28;20113;-70
2022/12/19 16:50:55;;;;;;;33.78;18.52;;;;;;;-0.15;100.00;102108.75;10549615;28;20036;-71
2022/12/19 16:55:58;;;;;;;45.55;23.05;;;;;;;-0.10;100.00;102119.03;10551252;28;20040;-70
2022/12/19 17:00:59;;;;;;;42.08;20.20;;;;;;;-0.24;100.00;102098.59;10549185;28;20040;-70
2022/12/19 17:06:00;;;;;;;50.17;23.60;;;;;;;-0.19;100.00;102108.91;10562326;27;20123;-69
2022/12/19 17:11:01;;;;;;;40.00;20.08;;;;;;;-0.31;100.00;102099.75;10536239;28;20130;-69
2022/12/19 17:16:03;;;;;;;43.75;22.02;;;;;;;-0.19;100.00;102120.19;10537993;28;20477;-72
2022/12/19 17:21:04;;;;;;;32.03;18.27;;;;;;;-0.94;100.00;101998.41;10514664;28;20457;-71
2022/12/19 17:26:05;;;;;;;31.60;17.75;;;;;;;-0.98;100.00;102012.47;10520837;28;20048;-70
2022/12/19 17:31:13;;;;;;;31.27;18.52;;;;;;;-0.84;100.00;102050.28;10539051;28;20058;-70
2022/12/19 17:36:14;;;;;;;33.97;19.13;;;;;;;-0.43;100.00;102126.31;10540480;28;20089;-70
2022/12/19 17:41:15;;;;;;;33.60;19.48;;;;;;;-0.24;100.00;102156.06;10533181;28;20124;-70
2022/12/19 17:46:19;;;;;;;33.50;20.20;;;;;;;-0.30;100.00;102154.56;10532515;28;20052;-71
2022/12/19 17:51:21;;;;;;;34.70;19.50;;;;;;;-0.22;100.00;102166.47;10515255;28;20048;-69
2022/12/19 17:56:22;;;;;;;36.47;18.48;;;;;;;-0.29;100.00;102163.22;10531535;28;20055;-69
2022/12/19 18:01:23;;;;;;;36.33;19.63;;;;;;;-0.64;100.00;102123.53;10502545;28;20040;-69
2022/12/19 18:06:24;;;;;;;37.08;20.35;;;;;;;-0.37;100.00;102157.41;10496557;28;20143;-69
2022/12/19 18:11:25;;;;;;;36.17;20.48;;;;;;;-0.56;100.00;102129.34;10495470;28;20166;-69
2022/12/19 18:16:29;;;;;;;33.70;19.27;;;;;;;-0.36;100.00;102186.09;10495858;28;20037;-70
2022/12/19 18:21:30;;;;;;;27.65;16.63;;;;;;;-0.37;100.00;102187.00;10495647;28;20044;-70
2022/12/19 18:26:31;;;;;;;34.67;19.67;;;;;;;-0.79;100.00;102111.00;10495462;28;20500;-69
2022/12/19 18:31:35;;;;;;;31.25;17.58;;;;;;;-0.43;100.00;102175.91;10496305;28;20036;-70
2022/12/19 18:36:39;;;;;;;34.47;18.33;;;;;;;-0.38;100.00;102180.06;10495954;28;20037;-70
2022/12/19 18:41:40;;;;;;;;;;;;;;;-0.30;100.00;102180.66;10495317;28;20071;-70
2022/12/19 18:46:40;;;;;;;28.13;15.65;;;;;;;-0.41;100.00;102189.78;10495661;28;19920;-70
2022/12/19 18:51:43;;;;;;;28.30;16.17;;;;;;;-0.52;100.00;102170.09;10546612;28;20036;-70
2022/12/19 18:56:45;;;;;;;27.58;16.08;;;;;;;-0.82;100.00;102125.00;10518997;28;20039;-70
2022/12/19 19:01:46;;;;;;;26.40;16.00;;;;;;;-0.40;100.00;102201.91;10537522;28;20044;-71
2022/12/19 19:06:48;;;;;;;22.45;13.73;;;;;;;-0.37;100.00;102218.31;10546439;28;20055;-70
2022/12/19 19:11:49;;;;;;;25.50;15.93;;;;;;;-0.38;100.00;102218.41;10531429;28;20040;-71
2022/12/19 19:16:51;;;;;;;21.73;14.23;;;;;;;-0.46;100.00;102222.09;10542112;28;20046;-71
2022/12/19 19:21:51;;;;;;;27.20;14.48;;;;;;;-0.53;100.00;102215.38;10524278;28;20093;-70
2022/12/19 19:26:52;;;;;;;26.42;13.55;;;;;;;-0.90;100.00;102157.44;10542042;28;20039;-71
2022/12/19 19:31:53;;;;;;;24.25;13.38;;;;;;;-0.54;100.00;102218.03;10541732;28;20039;-71
2022/12/19 19:36:58;;;;;;;21.08;13.07;;;;;;;-0.42;100.00;102253.31;10542008;28;20488;-70
2022/12/19 19:41:59;;;;;;;;;;;;;;;-0.33;100.00;102255.63;10544476;28;20052;-70
2022/12/19 19:47:00;;;;;;;20.98;12.95;;;;;;;-0.54;100.00;102233.69;10558706;28;19927;-70
2022/12/19 19:52:02;;;;;;;20.50;12.70;;;;;;;-1.40;100.00;102101.66;10589613;27;20036;-70
2022/12/19 19:57:02;;;;;;;17.20;12.05;;;;;;;-1.01;100.00;102171.72;10590335;27;20130;-71
2022/12/19 20:02:04;;;;;;;18.98;11.93;;;;;;;-0.48;100.00;102249.16;10627354;27;20463;-70
2022/12/19 20:07:05;;;;;;;19.23;12.77;;;;;;;-0.43;100.00;102272.50;10628462;27;20031;-70
2022/12/19 20:12:06;;;;;;;18.75;12.27;;;;;;;-0.42;100.00;102266.38;10627301;27;20039;-70
2022/12/19 20:17:06;;;;;;;17.73;12.05;;;;;;;-0.56;100.00;102249.41;10627347;27;20035;-70
2022/12/19 20:22:07;;;;;;;18.05;12.30;;;;;;;-0.55;100.00;102258.09;10626640;27;20384;-70
2022/12/19 20:27:09;;;;;;;20.13;12.43;;;;;;;-0.46;100.00;102271.69;10626962;27;20525;-70
2022/12/19 20:32:09;;;;;;;16.42;11.98;;;;;;;-0.94;100.00;102199.28;10625489;27;20035;-71
2022/12/19 20:37:10;;;;;;;18.63;12.35;;;;;;;-0.60;100.00;102263.50;10615106;27;20039;-70
2022/12/19 20:42:11;;;;;;;17.73;12.18;;;;;;;-0.53;100.00;102272.81;10626401;27;20515;-70
2022/12/19 20:47:12;;;;;;;16.85;11.65;;;;;;;-0.51;100.00;102278.84;10608157;27;20183;-70
2022/12/19 20:52:13;;;;;;;16.88;11.38;;;;;;;-0.48;100.00;102281.38;10626142;27;20126;-70
2022/12/19 20:57:14;;;;;;;18.15;12.13;;;;;;;-0.63;100.00;102240.06;10607835;27;20479;-70
2022/12/19 21:02:15;;;;;;;18.70;12.40;;;;;;;-0.57;100.00;102244.22;10624965;27;20401;-71
2022/12/19 21:07:15;;;;;;;17.80;11.18;;;;;;;-0.41;100.00;102275.94;10625295;27;20038;-70
2022/12/19 21:12:16;;;;;;;19.23;11.95;;;;;;;-0.53;100.00;102256.31;10625312;27;20039;-70
2022/12/19 21:17:17;;;;;;;18.60;11.23;;;;;;;-0.55;100.00;102253.72;10607007;27;20069;-70
2022/12/19 21:22:18;;;;;;;16.90;11.30;;;;;;;-1.02;100.00;102184.78;10624793;27;20039;-70
2022/12/19 21:27:18;;;;;;;18.67;11.77;;;;;;;-0.47;100.00;102283.06;10623340;27;20039;-70
2022/12/19 21:32:19;;;;;;;18.52;10.43;;;;;;;-0.49;100.00;102287.47;10624584;27;20031;-70
2022/12/19 21:37:23;;;;;;;15.27;10.75;;;;;;;-0.57;100.00;102275.56;10623851;27;20072;-70
2022/12/19 21:42:23;;;;;;;16.98;10.98;;;;;;;-0.94;100.00;102212.34;10623431;27;20130;-70
2022/12/19 21:47:24;;;;;;;16.58;10.35;;;;;;;-0.50;100.00;102293.59;10623394;27;20570;-70
2022/12/19 21:52:25;;;;;;;14.02;9.40;;;;;;;-0.53;100.00;102288.47;10623047;27;20171;-70
2022/12/19 21:57:25;;;;;;;16.25;9.38;;;;;;;-0.56;100.00;102322.50;10618847;27;20111;-71
2022/12/19 22:02:26;;;;;;;13.18;9.25;;;;;;;-0.63;100.00;102297.47;10613833;27;20043;-71
2022/12/19 22:07:27;;;;;;;13.93;8.85;;;;;;;-1.32;100.00;102207.44;10623179;27;20047;-71
2022/12/19 22:12:28;;;;;;;14.50;10.18;;;;;;;-0.78;100.00;102309.28;10622347;27;20035;-70
2022/12/19 22:17:28;;;;;;;12.98;8.63;;;;;;;-0.75;100.00;102310.91;10603648;27;20095;-71
2022/12/19 22:22:29;;;;;;;13.82;9.60;;;;;;;-1.12;99.83;102262.47;10622383;27;20096;-71
2022/12/19 22:27:30;;;;;;;13.93;8.73;;;;;;;-0.82;100.00;102306.78;10622496;27;20084;-70
2022/12/19 22:32:31;;;;;;;14.43;8.85;;;;;;;-1.01;99.95;102290.84;10622319;27;20490;-71
2022/12/19 22:37:31;;;;;;;14.68;9.77;;;;;;;-0.86;100.00;102329.53;10622517;27;20042;-71
2022/12/19 22:42:32;;;;;;;13.65;9.18;;;;;;;-1.38;99.78;102248.47;10621531;27;20138;-71
2022/12/19 22:47:34;;;;;;;15.35;9.80;;;;;;;-1.30;100.00;102283.88;10621964;28;20107;-70
2022/12/19 22:52:36;;;;;;;14.38;9.07;;;;;;;-1.34;100.00;102277.06;10621890;28;20039;-71
2022/12/19 22:57:37;;;;;;;13.40;9.27;;;;;;;-1.24;99.71;102304.56;10621108;28;20104;-70
2022/12/19 23:02:39;;;;;;;17.60;9.10;;;;;;;-1.44;100.00;102285.09;10621871;28;20050;-71
2022/12/19 23:07:40;;;;;;;15.25;9.48;;;;;;;-1.04;100.00;102354.41;10617220;28;20080;-71
2022/12/19 23:12:41;;;;;;;12.30;8.63;;;;;;;-0.80;99.98;102385.91;10612548;28;20456;-71